sensor_id;sensor_type;location;lat;lon;timestamp;temperature;humidity
17178;DHT22;8704;52.006;4.374;2023-06-05T16:26:42;29.10;1.00
17178;DHT22;8704;52.006;4.374;2023-06-05T16:29:14;29.30;1.00
17178;DHT22;8704;52.006;4.374;2023-06-05T16:31:42;29.70;1.00
17178;DHT22;8704;52.006;4.374;2023-06-05T16:34:12;28.80;1.00
17178;DHT22;8704;52.006;4.374;2023-06-05T16:36:40;28.90;1.00
17178;DHT22;8704;52.006;4.374;2023-06-05T16:39:08;28.90;1.00
17178;DHT22;8704;52.006;4.374;2023-06-05T16:41:37;29.20;1.00
17178;DHT22;8704;52.006;4.374;2023-06-05T16:44:07;29.70;1.00
17178;DHT22;8704;52.006;4.374;2023-06-05T16:46:38;29.50;1.00
17178;DHT22;8704;52.006;4.374;2023-06-05T16:49:07;29.20;1.00
17178;DHT22;8704;52.006;4.374;2023-06-05T16:51:35;29.60;1.00
17178;DHT22;8704;52.006;4.374;2023-06-05T16:54:04;29.50;1.00
17178;DHT22;8704;52.006;4.374;2023-06-05T16:56:33;29.40;1.00
17178;DHT22;8704;52.006;4.374;2023-06-05T16:59:05;29.20;1.00
17178;DHT22;8704;52.006;4.374;2023-06-05T17:01:37;29.40;1.00
17178;DHT22;8704;52.006;4.374;2023-06-05T17:04:06;29.20;1.00
17178;DHT22;8704;52.006;4.374;2023-06-05T17:06:35;29.20;1.00
17178;DHT22;8704;52.006;4.374;2023-06-05T17:09:04;29.10;1.00
17178;DHT22;8704;52.006;4.374;2023-06-05T17:11:32;29.10;1.00
17178;DHT22;8704;52.006;4.374;2023-06-05T17:14:01;29.20;1.00
17178;DHT22;8704;52.006;4.374;2023-06-05T17:16:29;29.10;1.00
17178;DHT22;8704;52.006;4.374;2023-06-05T17:18:59;29.30;1.00
17178;DHT22;8704;52.006;4.374;2023-06-05T17:21:27;29.00;1.00
17178;DHT22;8704;52.006;4.374;2023-06-05T17:23:55;29.10;1.00
17178;DHT22;8704;52.006;4.374;2023-06-05T17:26:23;28.30;1.00
17178;DHT22;8704;52.006;4.374;2023-06-05T17:28:53;28.70;1.00
17178;DHT22;8704;52.006;4.374;2023-06-05T17:31:26;28.60;1.00
17178;DHT22;8704;52.006;4.374;2023-06-05T17:33:55;28.70;1.00
17178;DHT22;8704;52.006;4.374;2023-06-05T17:36:25;28.30;1.00
17178;DHT22;8704;52.006;4.374;2023-06-05T17:38:54;28.50;1.00
17178;DHT22;8704;52.006;4.374;2023-06-05T17:41:22;27.90;1.00
17178;DHT22;8704;52.006;4.374;2023-06-05T17:43:50;27.90;1.00
17178;DHT22;8704;52.006;4.374;2023-06-05T17:46:20;27.80;1.00
17178;DHT22;8704;52.006;4.374;2023-06-05T17:48:48;27.60;1.00
17178;DHT22;8704;52.006;4.374;2023-06-05T17:51:19;27.70;1.00
17178;DHT22;8704;52.006;4.374;2023-06-05T17:53:48;27.40;1.00
17178;DHT22;8704;52.006;4.374;2023-06-05T17:56:17;27.40;1.00
17178;DHT22;8704;52.006;4.374;2023-06-05T17:58:45;27.50;1.00
17178;DHT22;8704;52.006;4.374;2023-06-05T18:01:14;27.80;1.00
17178;DHT22;8704;52.006;4.374;2023-06-05T18:03:43;27.40;1.00
17178;DHT22;8704;52.006;4.374;2023-06-05T18:06:12;27.10;1.00
17178;DHT22;8704;52.006;4.374;2023-06-05T18:08:40;26.90;1.00
17178;DHT22;8704;52.006;4.374;2023-06-05T18:11:09;26.70;1.00
17178;DHT22;8704;52.006;4.374;2023-06-05T18:13:37;27.00;1.00
17178;DHT22;8704;52.006;4.374;2023-06-05T18:16:06;26.70;1.00
17178;DHT22;8704;52.006;4.374;2023-06-05T18:18:34;26.80;1.00
17178;DHT22;8704;52.006;4.374;2023-06-05T18:21:04;26.90;1.00
17178;DHT22;8704;52.006;4.374;2023-06-05T18:23:38;26.70;1.00
17178;DHT22;8704;52.006;4.374;2023-06-05T18:26:06;26.80;1.00
17178;DHT22;8704;52.006;4.374;2023-06-05T18:28:36;26.50;1.00
17178;DHT22;8704;52.006;4.374;2023-06-05T18:31:06;26.40;1.00
17178;DHT22;8704;52.006;4.374;2023-06-05T18:33:35;25.90;1.00
17178;DHT22;8704;52.006;4.374;2023-06-05T18:36:03;26.10;1.00
17178;DHT22;8704;52.006;4.374;2023-06-05T18:38:31;25.80;1.00
17178;DHT22;8704;52.006;4.374;2023-06-05T18:41:00;25.60;1.00
17178;DHT22;8704;52.006;4.374;2023-06-05T18:43:28;25.10;1.00
17178;DHT22;8704;52.006;4.374;2023-06-05T18:45:58;25.10;1.00
17178;DHT22;8704;52.006;4.374;2023-06-05T18:48:26;24.90;1.00
17178;DHT22;8704;52.006;4.374;2023-06-05T18:50:55;24.70;1.00
17178;DHT22;8704;52.006;4.374;2023-06-05T18:53:30;24.20;1.00
17178;DHT22;8704;52.006;4.374;2023-06-05T18:55:58;24.10;1.00
17178;DHT22;8704;52.006;4.374;2023-06-05T18:58:26;23.60;1.00
17178;DHT22;8704;52.006;4.374;2023-06-05T19:00:54;23.30;1.00
17178;DHT22;8704;52.006;4.374;2023-06-05T19:03:24;23.10;1.00
17178;DHT22;8704;52.006;4.374;2023-06-05T19:05:52;23.20;1.00
17178;DHT22;8704;52.006;4.374;2023-06-05T19:08:19;23.00;1.00
17178;DHT22;8704;52.006;4.374;2023-06-05T19:10:47;22.70;1.00
17178;DHT22;8704;52.006;4.374;2023-06-05T19:13:15;22.40;1.00
17178;DHT22;8704;52.006;4.374;2023-06-05T19:15:45;21.80;1.00
17178;DHT22;8704;52.006;4.374;2023-06-05T19:18:17;21.50;1.00
17178;DHT22;8704;52.006;4.374;2023-06-05T19:20:47;21.40;1.00
17178;DHT22;8704;52.006;4.374;2023-06-05T19:23:15;21.30;1.00
17178;DHT22;8704;52.006;4.374;2023-06-05T19:25:43;21.10;1.00
17178;DHT22;8704;52.006;4.374;2023-06-05T19:28:11;20.60;1.00
17178;DHT22;8704;52.006;4.374;2023-06-05T19:30:39;20.60;1.00
17178;DHT22;8704;52.006;4.374;2023-06-05T19:33:12;20.40;1.00
17178;DHT22;8704;52.006;4.374;2023-06-05T19:35:42;20.30;1.00
17178;DHT22;8704;52.006;4.374;2023-06-05T19:38:11;20.10;1.00
17178;DHT22;8704;52.006;4.374;2023-06-05T19:40:39;19.60;1.00
17178;DHT22;8704;52.006;4.374;2023-06-05T19:43:07;19.50;1.00
17178;DHT22;8704;52.006;4.374;2023-06-05T19:45:36;19.60;1.00
17178;DHT22;8704;52.006;4.374;2023-06-05T19:48:04;19.20;1.00
17178;DHT22;8704;52.006;4.374;2023-06-05T19:50:32;19.00;1.00
17178;DHT22;8704;52.006;4.374;2023-06-05T19:53:03;18.90;1.00
17178;DHT22;8704;52.006;4.374;2023-06-05T19:55:32;18.80;1.00
17178;DHT22;8704;52.006;4.374;2023-06-05T19:58:00;18.70;1.00
17178;DHT22;8704;52.006;4.374;2023-06-05T20:00:28;18.60;1.00
17178;DHT22;8704;52.006;4.374;2023-06-05T20:02:56;18.50;1.00
17178;DHT22;8704;52.006;4.374;2023-06-05T20:05:25;18.40;1.00
17178;DHT22;8704;52.006;4.374;2023-06-05T20:07:53;18.40;1.00
17178;DHT22;8704;52.006;4.374;2023-06-05T20:10:21;18.00;1.00
17178;DHT22;8704;52.006;4.374;2023-06-05T20:12:51;17.90;1.00
17178;DHT22;8704;52.006;4.374;2023-06-05T20:15:18;17.70;1.00
17178;DHT22;8704;52.006;4.374;2023-06-05T20:17:46;17.70;1.00
17178;DHT22;8704;52.006;4.374;2023-06-05T20:20:14;17.50;1.00
17178;DHT22;8704;52.006;4.374;2023-06-05T20:22:43;17.50;1.00
17178;DHT22;8704;52.006;4.374;2023-06-05T20:25:11;17.30;1.00
17178;DHT22;8704;52.006;4.374;2023-06-05T20:27:39;17.20;1.00
17178;DHT22;8704;52.006;4.374;2023-06-05T20:30:09;17.10;1.00
17178;DHT22;8704;52.006;4.374;2023-06-05T20:32:37;17.10;1.00
17178;DHT22;8704;52.006;4.374;2023-06-05T20:35:06;17.00;1.00
17178;DHT22;8704;52.006;4.374;2023-06-05T20:37:37;17.00;1.00
17178;DHT22;8704;52.006;4.374;2023-06-05T20:40:06;16.90;1.00
17178;DHT22;8704;52.006;4.374;2023-06-05T20:42:36;16.80;1.00
17178;DHT22;8704;52.006;4.374;2023-06-05T20:45:05;16.70;1.00
17178;DHT22;8704;52.006;4.374;2023-06-05T20:47:35;16.50;1.00
17178;DHT22;8704;52.006;4.374;2023-06-05T20:50:07;16.50;1.00
17178;DHT22;8704;52.006;4.374;2023-06-05T20:52:35;16.40;1.00
17178;DHT22;8704;52.006;4.374;2023-06-05T20:55:04;16.30;1.00
17178;DHT22;8704;52.006;4.374;2023-06-05T20:57:33;16.20;1.00
17178;DHT22;8704;52.006;4.374;2023-06-05T21:00:01;16.20;1.00
17178;DHT22;8704;52.006;4.374;2023-06-05T21:02:31;16.00;1.00
17178;DHT22;8704;52.006;4.374;2023-06-05T21:05:01;16.10;1.00
17178;DHT22;8704;52.006;4.374;2023-06-05T21:07:32;16.10;1.00
17178;DHT22;8704;52.006;4.374;2023-06-05T21:10:00;15.80;1.00
17178;DHT22;8704;52.006;4.374;2023-06-05T21:12:30;15.80;1.00
17178;DHT22;8704;52.006;4.374;2023-06-05T21:14:58;15.80;1.00
17178;DHT22;8704;52.006;4.374;2023-06-05T21:17:26;15.60;1.00
17178;DHT22;8704;52.006;4.374;2023-06-05T21:19:55;15.60;1.00
17178;DHT22;8704;52.006;4.374;2023-06-05T21:22:24;15.50;1.00
17178;DHT22;8704;52.006;4.374;2023-06-05T21:24:52;15.50;1.00
17178;DHT22;8704;52.006;4.374;2023-06-05T21:27:20;15.30;1.00
17178;DHT22;8704;52.006;4.374;2023-06-05T21:29:48;15.30;1.00
17178;DHT22;8704;52.006;4.374;2023-06-05T21:32:18;15.20;1.00
17178;DHT22;8704;52.006;4.374;2023-06-05T21:34:46;15.20;1.00
17178;DHT22;8704;52.006;4.374;2023-06-05T21:37:15;15.20;1.00
17178;DHT22;8704;52.006;4.374;2023-06-05T21:39:46;15.00;3.40
17178;DHT22;8704;52.006;4.374;2023-06-05T21:42:14;15.00;1.00
17178;DHT22;8704;52.006;4.374;2023-06-05T21:44:44;15.00;1.20
17178;DHT22;8704;52.006;4.374;2023-06-05T21:47:13;14.90;1.00
17178;DHT22;8704;52.006;4.374;2023-06-05T21:49:41;15.00;1.00
17178;DHT22;8704;52.006;4.374;2023-06-05T21:52:09;14.70;1.00
17178;DHT22;8704;52.006;4.374;2023-06-05T21:54:39;14.70;5.00
17178;DHT22;8704;52.006;4.374;2023-06-05T21:57:10;14.70;4.50
17178;DHT22;8704;52.006;4.374;2023-06-05T21:59:38;14.70;1.00
17178;DHT22;8704;52.006;4.374;2023-06-05T22:02:07;14.60;1.00
17178;DHT22;8704;52.006;4.374;2023-06-05T22:04:35;14.50;2.00
17178;DHT22;8704;52.006;4.374;2023-06-05T22:07:04;14.50;7.60
17178;DHT22;8704;52.006;4.374;2023-06-05T22:09:32;14.40;10.00
17178;DHT22;8704;52.006;4.374;2023-06-05T22:12:01;14.40;13.70
17178;DHT22;8704;52.006;4.374;2023-06-05T22:14:31;14.40;24.30
17178;DHT22;8704;52.006;4.374;2023-06-05T22:16:59;14.30;19.00
17178;DHT22;8704;52.006;4.374;2023-06-05T22:19:28;14.20;9.30
17178;DHT22;8704;52.006;4.374;2023-06-05T22:21:57;14.20;26.60
17178;DHT22;8704;52.006;4.374;2023-06-05T22:24:25;14.20;17.50
17178;DHT22;8704;52.006;4.374;2023-06-05T22:26:53;13.90;22.60
17178;DHT22;8704;52.006;4.374;2023-06-05T22:29:21;14.10;22.70
17178;DHT22;8704;52.006;4.374;2023-06-05T22:31:50;14.10;29.40
17178;DHT22;8704;52.006;4.374;2023-06-05T22:34:18;14.00;28.50
17178;DHT22;8704;52.006;4.374;2023-06-05T22:36:47;14.00;25.70
17178;DHT22;8704;52.006;4.374;2023-06-05T22:39:15;14.00;26.30
17178;DHT22;8704;52.006;4.374;2023-06-05T22:41:43;13.90;37.10
17178;DHT22;8704;52.006;4.374;2023-06-05T22:44:12;14.00;30.00
17178;DHT22;8704;52.006;4.374;2023-06-05T22:46:40;13.90;35.90
17178;DHT22;8704;52.006;4.374;2023-06-05T22:49:09;13.90;27.40
17178;DHT22;8704;52.006;4.374;2023-06-05T22:51:37;13.80;37.00
17178;DHT22;8704;52.006;4.374;2023-06-05T22:54:10;13.70;45.10
17178;DHT22;8704;52.006;4.374;2023-06-05T22:56:38;13.70;50.00
17178;DHT22;8704;52.006;4.374;2023-06-05T22:59:06;13.70;45.50
17178;DHT22;8704;52.006;4.374;2023-06-05T23:01:34;14.40;56.00
17178;DHT22;8704;52.006;4.374;2023-06-05T23:04:02;13.60;66.80
17178;DHT22;8704;52.006;4.374;2023-06-05T23:06:32;13.60;81.30
17178;DHT22;8704;52.006;4.374;2023-06-05T23:09:01;13.50;85.60
17178;DHT22;8704;52.006;4.374;2023-06-05T23:11:30;13.50;91.40
17178;DHT22;8704;52.006;4.374;2023-06-05T23:13:58;13.50;99.90
17178;DHT22;8704;52.006;4.374;2023-06-05T23:16:26;13.40;99.90
17178;DHT22;8704;52.006;4.374;2023-06-05T23:18:54;13.50;99.90
17178;DHT22;8704;52.006;4.374;2023-06-05T23:21:22;13.40;99.90
17178;DHT22;8704;52.006;4.374;2023-06-05T23:23:52;14.00;99.90
17178;DHT22;8704;52.006;4.374;2023-06-05T23:26:20;14.00;99.90
17178;DHT22;8704;52.006;4.374;2023-06-05T23:28:52;13.30;99.90
17178;DHT22;8704;52.006;4.374;2023-06-05T23:31:22;13.20;99.90
17178;DHT22;8704;52.006;4.374;2023-06-05T23:33:50;13.40;99.90
17178;DHT22;8704;52.006;4.374;2023-06-05T23:36:18;13.10;99.90
17178;DHT22;8704;52.006;4.374;2023-06-05T23:38:46;13.10;99.90
17178;DHT22;8704;52.006;4.374;2023-06-05T23:41:15;13.10;99.90
17178;DHT22;8704;52.006;4.374;2023-06-05T23:43:43;13.10;99.90
17178;DHT22;8704;52.006;4.374;2023-06-05T23:46:12;13.00;99.90
17178;DHT22;8704;52.006;4.374;2023-06-05T23:48:40;12.90;99.90
17178;DHT22;8704;52.006;4.374;2023-06-05T23:51:08;12.90;99.90
17178;DHT22;8704;52.006;4.374;2023-06-05T23:53:37;12.90;99.90
17178;DHT22;8704;52.006;4.374;2023-06-05T23:56:05;13.00;99.90
17178;DHT22;8704;52.006;4.374;2023-06-05T23:58:34;12.90;99.90
